createdAt,value
2019-02-25T00:01:34.674Z,69.83
2019-02-25T00:04:04.117Z,69.97
2019-02-25T00:06:35.340Z,69.76
2019-02-25T00:09:06.092Z,69.60
2019-02-25T00:11:35.521Z,69.25
2019-02-25T00:14:04.778Z,68.94
2019-02-25T00:16:33.996Z,68.67
2019-02-25T00:19:03.254Z,68.31
2019-02-25T00:21:32.816Z,68.02
2019-02-25T00:24:02.095Z,67.98
2019-02-25T00:26:31.319Z,67.48
2019-02-25T00:29:00.582Z,66.93
2019-02-25T00:31:29.820Z,66.62
2019-02-25T00:34:03.138Z,66.31
2019-02-25T00:36:32.393Z,66.11
2019-02-25T00:39:02.057Z,65.91
2019-02-25T00:41:31.290Z,65.78
2019-02-25T00:44:00.561Z,65.72
2019-02-25T00:46:30.049Z,66.01
2019-02-25T00:48:59.625Z,66.08
2019-02-25T00:51:28.889Z,66.19
2019-02-25T00:54:00.614Z,66.30
2019-02-25T00:56:33.409Z,66.27
2019-02-25T00:59:02.649Z,66.35
2019-02-25T01:01:34.210Z,66.45
2019-02-25T01:04:03.455Z,67.13
2019-02-25T01:06:34.934Z,68.51
2019-02-25T01:09:05.833Z,69.47
2019-02-25T01:11:35.409Z,69.76
2019-02-25T01:14:05.468Z,70.00
2019-02-25T01:16:34.721Z,70.02
2019-02-25T01:19:03.957Z,69.96
2019-02-25T01:21:34.544Z,69.93
2019-02-25T01:24:06.157Z,70.00
2019-02-25T01:26:35.720Z,70.06
2019-02-25T01:29:06.066Z,69.91
2019-02-25T01:31:35.715Z,69.67
2019-02-25T01:34:07.474Z,69.65
2019-02-25T01:36:36.729Z,69.58
2019-02-25T01:39:07.987Z,69.58
2019-02-25T01:41:39.397Z,69.73
2019-02-25T01:44:09.207Z,69.66
2019-02-25T01:46:38.815Z,69.70
2019-02-25T01:49:08.065Z,69.66
2019-02-25T01:51:37.324Z,69.70
2019-02-25T01:54:06.561Z,69.76
2019-02-25T01:56:35.817Z,69.86
2019-02-25T01:59:05.307Z,70.35
2019-02-25T02:01:34.588Z,70.66
2019-02-25T02:04:04.267Z,71.64
2019-02-25T02:06:33.795Z,71.73
2019-02-25T02:09:04.522Z,71.33
2019-02-25T02:11:37.189Z,71.12
2019-02-25T02:14:07.563Z,71.25
2019-02-25T02:16:36.817Z,71.39
2019-02-25T02:19:06.045Z,70.69
2019-02-25T02:21:37.046Z,69.60
2019-02-25T02:24:06.324Z,70.65
2019-02-25T02:26:35.574Z,72.21
2019-02-25T02:29:07.329Z,72.50
2019-02-25T02:31:36.597Z,72.46
2019-02-25T02:34:05.840Z,72.06
2019-02-25T02:36:36.255Z,72.05
2019-02-25T02:39:08.485Z,72.20
2019-02-25T02:42:12.856Z,72.33
2019-02-25T02:44:43.432Z,72.26
2019-02-25T02:48:05.987Z,72.05
2019-02-25T02:50:36.235Z,71.95
2019-02-25T02:53:05.481Z,71.75
2019-02-25T02:55:36.294Z,72.53
2019-02-25T02:58:05.573Z,73.51
2019-02-25T03:00:35.998Z,74.41
2019-02-25T03:03:05.380Z,75.09
2019-02-25T03:05:34.615Z,75.80
2019-02-25T03:08:03.996Z,76.31
2019-02-25T03:10:33.051Z,76.92
2019-02-25T03:13:03.172Z,76.96
2019-02-25T03:15:33.303Z,76.97
2019-02-25T03:18:02.559Z,76.81
2019-02-25T03:20:31.788Z,76.41
2019-02-25T03:23:01.086Z,75.72
2019-02-25T03:25:31.664Z,74.95
2019-02-25T03:28:00.919Z,74.57
2019-02-25T03:30:30.568Z,74.12
2019-02-25T03:33:01.014Z,73.79
2019-02-25T03:35:30.250Z,73.35
2019-02-25T03:37:59.554Z,72.80
2019-02-25T03:40:30.250Z,72.45
2019-02-25T03:43:00.627Z,72.31
2019-02-25T03:45:30.211Z,72.11
2019-02-25T03:47:59.479Z,71.37
2019-02-25T03:50:28.711Z,70.92
2019-02-25T03:52:57.960Z,71.07
2019-02-25T03:55:27.514Z,70.75
2019-02-25T03:57:56.821Z,70.76
2019-02-25T04:00:26.190Z,71.15
2019-02-25T04:02:56.451Z,71.75
2019-02-25T04:05:27.996Z,72.21
2019-02-25T04:07:57.669Z,72.62
2019-02-25T04:10:26.938Z,73.09
2019-02-25T04:12:56.194Z,73.56
2019-02-25T04:15:30.700Z,73.44
2019-02-25T04:17:59.987Z,75.00
2019-02-25T04:20:29.218Z,76.37
2019-02-25T04:22:58.472Z,77.45
2019-02-25T04:25:29.626Z,78.10
2019-02-25T04:27:58.876Z,79.06
2019-02-25T04:30:29.001Z,79.14
2019-02-25T04:32:58.275Z,79.00
2019-02-25T04:35:28.736Z,78.77
2019-02-25T04:37:59.562Z,76.86
2019-02-25T04:40:28.790Z,76.85
2019-02-25T04:42:58.069Z,77.01
2019-02-25T04:45:27.366Z,77.50
2019-02-25T04:47:57.110Z,78.97
2019-02-25T04:50:26.380Z,80.29
2019-02-25T04:52:55.932Z,81.38
2019-02-25T04:55:25.555Z,81.53
2019-02-25T04:57:54.797Z,81.50
2019-02-25T05:00:24.347Z,81.00
2019-02-25T05:02:53.605Z,80.56
2019-02-25T05:05:22.895Z,80.02
2019-02-25T05:07:52.151Z,79.70
2019-02-25T05:10:21.858Z,79.68
2019-02-25T05:12:56.390Z,79.67
2019-02-25T05:15:26.469Z,79.65
2019-02-25T05:17:59.125Z,79.49
2019-02-25T05:20:30.886Z,79.26
2019-02-25T05:23:00.414Z,78.87
2019-02-25T05:25:32.396Z,78.68
2019-02-25T05:28:01.790Z,78.47
2019-02-25T05:30:31.313Z,78.23
2019-02-25T05:33:00.544Z,77.90
2019-02-25T05:35:31.360Z,77.94
2019-02-25T05:38:00.860Z,77.93
2019-02-25T05:40:31.490Z,77.98
2019-02-25T05:43:03.809Z,78.82
2019-02-25T05:45:34.113Z,79.46
2019-02-25T05:48:03.355Z,79.77
2019-02-25T05:50:32.918Z,79.79
2019-02-25T05:53:04.533Z,79.53
2019-02-25T05:55:34.143Z,79.62
2019-02-25T05:58:03.387Z,79.49
2019-02-25T06:00:33.034Z,79.28
2019-02-25T06:03:02.290Z,78.97
2019-02-25T06:05:31.818Z,78.54
2019-02-25T06:08:02.961Z,78.24
2019-02-25T06:10:32.220Z,77.84
2019-02-25T06:13:01.450Z,77.72
2019-02-25T06:15:30.697Z,77.38
2019-02-25T06:17:59.945Z,77.11
2019-02-25T06:20:31.718Z,76.99
2019-02-25T06:23:00.947Z,76.57
2019-02-25T06:25:30.198Z,76.10
2019-02-25T06:27:59.700Z,75.63
2019-02-25T06:30:29.019Z,75.50
2019-02-25T06:33:00.458Z,75.30
2019-02-25T06:35:32.022Z,74.91
2019-02-25T06:38:01.082Z,74.35
2019-02-25T06:40:30.784Z,74.09
2019-02-25T06:43:00.396Z,73.98
2019-02-25T06:45:31.172Z,74.00
2019-02-25T06:48:00.574Z,73.58
2019-02-25T06:50:29.818Z,73.11
2019-02-25T06:52:59.045Z,72.23
2019-02-25T06:55:29.105Z,71.52
2019-02-25T06:57:58.346Z,71.02
2019-02-25T07:00:27.608Z,70.26
2019-02-25T07:02:56.853Z,69.50
2019-02-25T07:05:39.589Z,68.69
2019-02-25T07:08:15.012Z,67.58
2019-02-25T07:11:15.388Z,67.12
2019-02-25T07:13:59.155Z,66.19
2019-02-25T07:16:47.632Z,65.47
2019-02-25T07:19:38.577Z,64.93
2019-02-25T07:22:41.916Z,64.81
2019-02-25T07:25:33.028Z,63.17
2019-02-25T07:28:21.628Z,61.96
2019-02-25T07:31:12.294Z,59.00
2019-02-25T07:33:57.645Z,54.26
2019-02-25T07:36:46.442Z,50.49
2019-02-25T07:39:38.673Z,49.73
2019-02-25T07:42:16.669Z,48.91
2019-02-25T07:45:00.894Z,46.99
2019-02-25T07:48:01.269Z,46.45
2019-02-25T07:50:48.699Z,46.74
2019-02-25T07:53:54.974Z,45.90
2019-02-25T07:56:41.925Z,43.71
2019-02-25T07:59:24.435Z,43.05
2019-02-25T08:02:00.737Z,39.06
2019-02-25T08:04:41.790Z,35.34
2019-02-25T08:07:19.050Z,32.67
2019-02-25T08:10:10.130Z,34.13
2019-02-25T08:12:51.801Z,34.75
2019-02-25T08:15:27.257Z,33.27
2019-02-25T08:18:07.486Z,35.33
2019-02-25T08:20:55.739Z,36.30
2019-02-25T08:24:02.933Z,37.14
2019-02-25T08:26:45.143Z,37.61
2019-02-25T08:29:35.819Z,35.30
2019-02-25T08:32:28.140Z,32.60
2019-02-25T08:35:06.988Z,29.89
2019-02-25T08:38:03.458Z,29.40
2019-02-25T08:40:52.256Z,30.20
2019-02-25T08:43:43.369Z,31.17
2019-02-25T08:46:18.560Z,31.62
2019-02-25T08:48:52.944Z,30.05
2019-02-25T08:51:23.021Z,28.28
2019-02-25T08:53:53.573Z,26.93
2019-02-25T08:56:24.192Z,26.41
2019-02-25T08:58:53.444Z,23.62
2019-02-25T09:01:22.697Z,23.89
2019-02-25T09:03:51.958Z,22.47
2019-02-25T09:06:21.935Z,22.57
2019-02-25T09:08:51.214Z,23.12
2019-02-25T09:11:22.753Z,24.53
2019-02-25T09:13:52.024Z,25.82
2019-02-25T09:16:21.348Z,24.07
2019-02-25T09:18:51.096Z,23.37
2019-02-25T09:21:21.499Z,22.56
2019-02-25T09:23:50.794Z,22.45
2019-02-25T09:26:20.062Z,20.19
2019-02-25T09:28:49.295Z,19.34
2019-02-25T09:31:18.562Z,19.24
2019-02-25T09:33:49.047Z,19.68
2019-02-25T09:36:19.493Z,22.00
2019-02-25T09:38:48.828Z,21.32
2019-02-25T09:41:29.953Z,19.83
2019-02-25T09:43:56.545Z,19.07
2019-02-25T09:46:26.621Z,18.75
2019-02-25T09:48:57.158Z,18.86
2019-02-25T09:51:27.443Z,17.86
2019-02-25T09:53:56.970Z,18.80
2019-02-25T09:56:26.232Z,18.68
2019-02-25T09:58:55.460Z,18.63
2019-02-25T10:01:24.738Z,18.22
2019-02-25T10:03:53.974Z,18.68
2019-02-25T10:06:23.227Z,18.22
2019-02-25T10:08:52.469Z,18.32
2019-02-25T10:11:21.723Z,18.86
2019-02-25T10:13:51.908Z,19.72
2019-02-25T10:16:22.694Z,21.37
2019-02-25T10:18:51.927Z,20.58
2019-02-25T10:21:23.863Z,20.78
2019-02-25T10:23:53.105Z,21.76
2019-02-25T10:26:24.158Z,22.37
2019-02-25T10:28:53.392Z,23.86
2019-02-25T10:31:23.037Z,24.96
2019-02-25T10:33:52.273Z,25.95
2019-02-25T10:36:21.922Z,24.66
2019-02-25T10:38:52.384Z,24.57
2019-02-25T10:41:23.390Z,24.29
2019-02-25T10:43:53.386Z,24.60
2019-02-25T10:46:22.649Z,24.08
2019-02-25T10:48:54.324Z,22.96
2019-02-25T10:51:25.159Z,23.46
2019-02-25T10:53:54.387Z,24.35
2019-02-25T10:56:33.608Z,24.95
2019-02-25T10:59:04.524Z,23.98
2019-02-25T11:01:34.615Z,24.01
2019-02-25T11:04:04.117Z,23.65
2019-02-25T11:06:37.571Z,23.51
2019-02-25T11:09:44.414Z,22.34
2019-02-25T11:12:14.825Z,22.06
2019-02-25T11:14:45.379Z,22.81
2019-02-25T11:17:16.140Z,22.73
2019-02-25T11:19:46.522Z,22.22
2019-02-25T11:22:16.338Z,21.88
2019-02-25T11:24:47.424Z,22.72
2019-02-25T11:27:17.204Z,22.36
2019-02-25T11:29:48.328Z,21.95
2019-02-25T11:32:19.897Z,22.22
2019-02-25T11:34:48.957Z,22.52
2019-02-25T11:37:19.730Z,23.06
2019-02-25T11:39:50.055Z,23.44
2019-02-25T11:42:20.750Z,22.83
2019-02-25T11:44:51.779Z,22.41
2019-02-25T11:47:23.900Z,22.45
2019-02-25T11:49:53.129Z,23.12
2019-02-25T11:52:22.415Z,22.89
2019-02-25T11:54:51.744Z,22.88
2019-02-25T11:57:23.157Z,22.50
2019-02-25T11:59:52.396Z,22.97
2019-02-25T12:02:25.831Z,22.24
2019-02-25T12:04:54.330Z,22.43
2019-02-25T12:07:24.806Z,22.33
2019-02-25T12:09:55.198Z,22.64
2019-02-25T12:12:24.753Z,23.47
2019-02-25T12:14:55.101Z,23.76
2019-02-25T12:17:26.508Z,24.90
2019-02-25T12:19:58.092Z,25.18
2019-02-25T12:22:27.353Z,25.69
2019-02-25T12:24:58.868Z,24.98
2019-02-25T12:27:28.114Z,25.46
2019-02-25T12:29:58.236Z,25.23
2019-02-25T12:32:29.159Z,24.07
2019-02-25T12:34:58.422Z,24.12
2019-02-25T12:37:27.470Z,24.12
2019-02-25T12:39:56.795Z,25.39
2019-02-25T12:42:26.932Z,25.55
2019-02-25T12:44:57.069Z,26.56
2019-02-25T12:47:26.609Z,28.01
2019-02-25T12:49:55.874Z,27.72
2019-02-25T12:52:27.865Z,26.90
2019-02-25T12:54:57.609Z,26.90
2019-02-25T12:57:27.119Z,25.92
2019-02-25T12:59:56.672Z,26.40
2019-02-25T13:02:27.714Z,27.30
2019-02-25T13:04:57.152Z,27.30
2019-02-25T13:07:26.435Z,27.86
2019-02-25T13:09:57.045Z,27.86
2019-02-25T13:12:26.280Z,29.01
2019-02-25T13:14:56.640Z,27.93
2019-02-25T13:17:26.160Z,27.79
2019-02-25T13:19:55.674Z,26.76
2019-02-25T13:22:24.891Z,26.25
2019-02-25T13:24:54.503Z,26.14
2019-02-25T13:27:23.719Z,25.53
2019-02-25T13:29:53.272Z,25.56
2019-02-25T13:32:23.791Z,25.14
2019-02-25T13:34:53.326Z,25.07
2019-02-25T13:37:23.293Z,24.70
2019-02-25T13:39:55.096Z,24.76
2019-02-25T13:42:24.312Z,25.35
2019-02-25T13:44:53.811Z,24.17
2019-02-25T13:47:23.030Z,23.83
2019-02-25T13:49:52.711Z,24.65
2019-02-25T13:52:24.146Z,23.83
2019-02-25T13:54:55.191Z,24.90
2019-02-25T13:57:24.425Z,25.45
2019-02-25T13:59:53.703Z,25.56
2019-02-25T14:02:25.599Z,24.70
2019-02-25T14:04:55.569Z,24.51
2019-02-25T14:07:24.891Z,24.43
2019-02-25T14:09:54.126Z,24.98
2019-02-25T14:12:23.364Z,24.82
2019-02-25T14:14:53.677Z,24.41
2019-02-25T14:17:22.894Z,24.52
2019-02-25T14:19:52.515Z,24.85
2019-02-25T14:22:22.619Z,25.00
2019-02-25T14:24:55.414Z,25.09
2019-02-25T14:27:24.850Z,24.94
2019-02-25T14:29:54.408Z,24.97
2019-02-25T14:32:23.634Z,25.46
2019-02-25T14:34:55.328Z,25.19
2019-02-25T14:37:25.343Z,24.86
2019-02-25T14:39:56.353Z,23.93
2019-02-25T14:42:26.473Z,24.31
2019-02-25T14:44:58.557Z,24.59
2019-02-25T14:47:35.034Z,24.65
2019-02-25T14:50:00.790Z,24.79
2019-02-25T14:52:31.851Z,24.41
2019-02-25T14:55:03.763Z,23.54
2019-02-25T14:57:33.350Z,24.11
2019-02-25T15:00:04.221Z,24.52
2019-02-25T15:02:36.324Z,24.63
2019-02-25T15:05:05.973Z,24.55
2019-02-25T15:07:37.609Z,23.44
2019-02-25T15:10:11.126Z,23.77
2019-02-25T15:12:40.871Z,24.34
2019-02-25T15:15:11.599Z,24.97
2019-02-25T15:17:41.974Z,25.20
2019-02-25T15:20:16.397Z,26.58
2019-02-25T15:22:44.109Z,27.32
2019-02-25T15:25:13.747Z,28.32
2019-02-25T15:27:45.063Z,29.36
2019-02-25T15:30:20.612Z,30.14
2019-02-25T15:32:55.632Z,30.76
2019-02-25T15:35:20.851Z,31.59
2019-02-25T15:37:51.234Z,32.29
2019-02-25T15:40:22.783Z,32.66
2019-02-25T15:43:04.909Z,32.78
2019-02-25T15:45:37.701Z,33.15
2019-02-25T15:48:09.768Z,34.20
2019-02-25T15:50:44.052Z,34.79
2019-02-25T15:53:16.025Z,35.31
2019-02-25T15:55:44.153Z,35.58
2019-02-25T15:58:13.410Z,35.98
2019-02-25T16:00:42.933Z,36.72
2019-02-25T16:03:13.769Z,36.85
2019-02-25T16:05:43.867Z,36.97
2019-02-25T16:08:16.151Z,37.29
2019-02-25T16:10:44.619Z,37.76
2019-02-25T16:13:14.433Z,38.55
2019-02-25T16:15:43.952Z,38.63
2019-02-25T16:18:14.097Z,38.37
2019-02-25T16:20:46.168Z,38.50
2019-02-25T16:23:16.248Z,39.40
2019-02-25T16:25:46.549Z,39.38
2019-02-25T16:28:17.497Z,40.74
2019-02-25T16:30:48.687Z,41.09
2019-02-25T16:33:19.194Z,41.23
2019-02-25T16:35:49.515Z,41.35
2019-02-25T16:38:21.047Z,41.51
2019-02-25T16:40:50.267Z,42.23
2019-02-25T16:43:19.755Z,42.28
2019-02-25T16:45:49.002Z,42.84
2019-02-25T16:48:23.549Z,43.40
2019-02-25T16:50:50.312Z,44.31
2019-02-25T16:53:20.307Z,44.58
2019-02-25T16:55:51.408Z,45.00
2019-02-25T16:58:20.647Z,45.29
2019-02-25T17:00:49.932Z,45.82
2019-02-25T17:03:19.586Z,46.64
2019-02-25T17:05:50.484Z,46.86
2019-02-25T17:08:21.760Z,47.34
2019-02-25T17:10:51.925Z,47.97
2019-02-25T17:13:22.071Z,48.27
2019-02-25T17:15:53.037Z,48.80
2019-02-25T17:18:24.063Z,49.25
2019-02-25T17:20:53.329Z,49.38
2019-02-25T17:23:24.711Z,49.68
2019-02-25T17:25:53.560Z,50.06
2019-02-25T17:28:24.598Z,50.52
2019-02-25T17:30:53.793Z,50.88
2019-02-25T17:33:26.207Z,51.29
2019-02-25T17:35:55.823Z,51.47
2019-02-25T17:38:26.551Z,51.94
2019-02-25T17:40:59.211Z,52.34
2019-02-25T17:43:32.560Z,52.84
2019-02-25T17:46:05.120Z,53.17
2019-02-25T17:48:35.051Z,53.57
2019-02-25T17:51:04.500Z,53.73
2019-02-25T17:53:33.823Z,54.03
2019-02-25T17:56:03.094Z,54.84
2019-02-25T17:58:40.714Z,55.17
2019-02-25T18:01:12.392Z,55.53
2019-02-25T18:03:44.378Z,56.00
2019-02-25T18:06:14.595Z,55.92
2019-02-25T18:08:43.964Z,56.35
2019-02-25T18:11:14.030Z,56.93
2019-02-25T18:13:46.758Z,57.19
2019-02-25T18:16:17.267Z,57.90
2019-02-25T18:18:50.721Z,58.39
2019-02-25T18:21:19.104Z,58.89
2019-02-25T18:23:49.382Z,59.56
2019-02-25T18:26:19.281Z,59.96
2019-02-25T18:28:52.641Z,60.50
2019-02-25T18:31:22.886Z,60.79
2019-02-25T18:33:54.415Z,61.20
2019-02-25T18:36:26.375Z,61.74
2019-02-25T18:38:56.533Z,61.99
2019-02-25T18:41:27.415Z,61.41
2019-02-25T18:43:56.724Z,61.16
2019-02-25T18:46:27.269Z,62.05
2019-02-25T18:48:57.726Z,62.67
2019-02-25T18:51:30.121Z,63.10
2019-02-25T18:54:01.318Z,63.50
2019-02-25T18:56:33.652Z,63.96
2019-02-25T18:59:08.706Z,64.02
2019-02-25T19:01:38.147Z,64.11
2019-02-25T19:04:07.680Z,64.22
2019-02-25T19:06:37.592Z,64.29
2019-02-25T19:09:14.215Z,64.33
2019-02-25T19:11:45.467Z,64.40
2019-02-25T19:14:17.940Z,64.20
2019-02-25T19:16:47.529Z,64.06
2019-02-25T19:19:17.475Z,64.28
2019-02-25T19:21:48.241Z,64.08
2019-02-25T19:24:19.977Z,64.16
2019-02-25T19:26:50.602Z,64.15
2019-02-25T19:29:21.684Z,64.25
2019-02-25T19:31:51.111Z,64.35
2019-02-25T19:34:21.265Z,64.83
2019-02-25T19:36:50.587Z,64.58
2019-02-25T19:39:21.520Z,64.32
2019-02-25T19:41:51.618Z,64.82
2019-02-25T19:44:41.132Z,65.42
2019-02-25T19:47:14.353Z,65.34
2019-02-25T19:49:45.921Z,65.54
2019-02-25T19:52:16.776Z,65.63
2019-02-25T19:54:50.659Z,66.00
2019-02-25T19:57:26.163Z,66.00
2019-02-25T19:59:57.968Z,66.39
2019-02-25T20:02:29.647Z,66.16
2019-02-25T20:04:59.557Z,66.41
2019-02-25T20:07:30.911Z,66.60
2019-02-25T20:09:59.745Z,66.98
2019-02-25T20:12:36.608Z,67.45
2019-02-25T20:15:09.422Z,67.50
2019-02-25T20:17:39.345Z,67.26
2019-02-25T20:20:11.003Z,67.45
2019-02-25T20:22:40.848Z,67.43
2019-02-25T20:25:12.531Z,67.83
2019-02-25T20:27:44.346Z,68.01
2019-02-25T20:30:15.772Z,68.06
2019-02-25T20:32:44.990Z,68.24
2019-02-25T20:35:15.722Z,68.21
2019-02-25T20:37:48.894Z,68.01
2019-02-25T20:40:24.156Z,67.80
2019-02-25T20:42:54.142Z,67.44
2019-02-25T20:45:26.074Z,67.77
2019-02-25T20:47:57.181Z,69.50
2019-02-25T20:50:28.043Z,69.76
2019-02-25T20:53:09.176Z,69.62
2019-02-25T20:55:38.913Z,69.34
2019-02-25T20:58:08.315Z,69.66
2019-02-25T21:00:42.020Z,70.60
2019-02-25T21:03:13.991Z,71.22
2019-02-25T21:05:42.786Z,71.59
2019-02-25T21:08:14.151Z,71.71
2019-02-25T21:10:45.407Z,72.00
2019-02-25T21:13:14.648Z,72.44
2019-02-25T21:15:45.397Z,72.22
2019-02-25T21:18:14.815Z,72.96
2019-02-25T21:20:45.239Z,73.11
2019-02-25T21:23:17.295Z,73.40
2019-02-25T21:25:53.420Z,74.85
2019-02-25T21:28:25.131Z,75.92
2019-02-25T21:30:52.916Z,77.06
2019-02-25T21:33:24.931Z,77.80
2019-02-25T21:35:53.102Z,78.85
2019-02-25T21:38:26.751Z,79.34
2019-02-25T21:40:58.987Z,79.38
2019-02-25T21:43:29.076Z,79.52
2019-02-25T21:46:01.751Z,79.54
2019-02-25T21:48:37.616Z,79.86
2019-02-25T21:51:08.002Z,79.84
2019-02-25T21:53:38.192Z,79.48
2019-02-25T21:56:11.129Z,79.04
2019-02-25T21:58:42.928Z,78.10
2019-02-25T22:01:12.003Z,77.44
2019-02-25T22:03:45.933Z,76.84
2019-02-25T22:06:14.152Z,76.47
2019-02-25T22:08:43.403Z,77.18
2019-02-25T22:11:17.227Z,77.92
2019-02-25T22:13:47.035Z,78.21
2019-02-25T22:16:17.374Z,77.90
2019-02-25T22:18:50.373Z,77.43
2019-02-25T22:21:21.334Z,76.95
2019-02-25T22:23:54.556Z,77.09
2019-02-25T22:26:27.187Z,76.87
2019-02-25T22:28:55.403Z,77.76
2019-02-25T22:31:24.851Z,78.99
2019-02-25T22:33:54.485Z,79.07
2019-02-25T22:36:24.425Z,78.22
2019-02-25T22:38:57.213Z,77.01
2019-02-25T22:41:27.182Z,75.94
2019-02-25T22:43:56.897Z,75.43
2019-02-25T22:46:29.934Z,75.52
2019-02-25T22:48:59.289Z,75.50
2019-02-25T22:51:30.647Z,75.79
2019-02-25T22:54:00.918Z,76.14
2019-02-25T22:56:31.094Z,75.91
2019-02-25T22:59:03.298Z,75.49
2019-02-25T23:01:36.881Z,75.31
2019-02-25T23:04:05.966Z,75.77
2019-02-25T23:06:39.710Z,76.27
2019-02-25T23:09:14.286Z,77.17
2019-02-25T23:11:46.015Z,77.93
2019-02-25T23:14:18.026Z,78.00
2019-02-25T23:16:49.620Z,77.34
2019-02-25T23:19:20.329Z,76.50
2019-02-25T23:21:49.817Z,76.11
2019-02-25T23:24:21.766Z,76.12
2019-02-25T23:26:53.058Z,76.33
2019-02-25T23:29:26.657Z,77.62
2019-02-25T23:31:53.791Z,77.49
2019-02-25T23:34:23.022Z,76.99
2019-02-25T23:36:56.095Z,76.18
2019-02-25T23:39:27.333Z,76.28
2019-02-25T23:42:00.676Z,76.92
2019-02-25T23:44:29.978Z,77.78
2019-02-25T23:47:02.110Z,77.65
2019-02-25T23:49:31.679Z,77.59
2019-02-25T23:52:00.886Z,77.66
2019-02-25T23:54:33.368Z,78.18
2019-02-25T23:57:02.967Z,78.59
2019-02-25T23:59:33.056Z,78.72
